Time;durP1;ratioP1;P1;durP2;ratioP2;P2;SDS_P1;SDS_P2;PMS_P1;PMS_P2;Temp;Humidity;BMP_temperature;BMP_pressure;BME280_temperature;BME280_humidity;BME280_pressure;Samples;Min_cycle;Max_cycle;Signal;HPM_P1;HPM_P2
2023/07/02 00:00:30;;;;;;;21.65;5.97;;;;;;;17.66;100.00;100808.09;5028708;28;20416;-64
2023/07/02 00:02:55;;;;;;;14.07;5.28;;;;;;;17.62;100.00;100812.78;5029130;28;20021;-60
2023/07/02 00:05:21;;;;;;;11.90;5.32;;;;;;;17.49;100.00;100806.53;5028625;28;20044;-62
2023/07/02 00:07:46;;;;;;;13.75;5.82;;;;;;;17.40;100.00;100803.50;5010221;28;20017;-65
2023/07/02 00:10:12;;;;;;;12.90;5.13;;;;;;;17.33;100.00;100807.50;5027738;28;20029;-64
2023/07/02 00:12:37;;;;;;;15.57;5.72;;;;;;;17.25;100.00;100800.00;5032578;28;20039;-63
2023/07/02 00:15:03;;;;;;;18.00;5.65;;;;;;;17.20;100.00;100796.78;5047972;28;20033;-63
2023/07/02 00:17:28;;;;;;;20.15;7.07;;;;;;;17.16;100.00;100801.44;5029580;28;20028;-66
2023/07/02 00:19:54;;;;;;;16.65;6.07;;;;;;;17.12;100.00;100799.91;5047653;28;20032;-62
2023/07/02 00:22:20;;;;;;;18.73;6.60;;;;;;;17.00;100.00;100793.53;5047536;28;20025;-63
2023/07/02 00:24:45;;;;;;;16.27;6.00;;;;;;;16.95;100.00;100802.75;5030521;28;20060;-65
2023/07/02 00:27:11;;;;;;;21.13;6.20;;;;;;;16.90;100.00;100798.56;5046438;28;20052;-61
2023/07/02 00:29:36;;;;;;;18.50;7.10;;;;;;;16.93;100.00;100805.50;5048012;28;20058;-62
2023/07/02 00:32:02;;;;;;;15.40;6.20;;;;;;;16.93;100.00;100808.16;5046948;28;20113;-63
2023/07/02 00:34:27;;;;;;;15.77;6.82;;;;;;;16.91;100.00;100808.25;5047458;28;20440;-65
2023/07/02 00:36:53;;;;;;;17.85;6.72;;;;;;;16.89;100.00;100796.84;5047203;28;20071;-65
2023/07/02 00:39:18;;;;;;;15.07;5.97;;;;;;;16.85;100.00;100807.75;5043720;28;20061;-63
2023/07/02 00:41:46;;;;;;;23.60;6.68;;;;;;;16.79;100.00;100807.19;5027281;28;20045;-65
2023/07/02 00:44:12;;;;;;;11.80;6.05;;;;;;;16.79;100.00;100806.34;5026664;28;20100;-65
2023/07/02 00:46:37;;;;;;;26.08;6.43;;;;;;;16.75;100.00;100811.00;5027560;28;20033;-65
2023/07/02 00:49:04;;;;;;;19.52;6.50;;;;;;;16.77;100.00;100816.22;5036444;28;20048;-62
2023/07/02 00:51:30;;;;;;;16.23;6.32;;;;;;;16.76;100.00;100811.84;5047061;28;20029;-63
2023/07/02 00:53:58;;;;;;;18.10;6.20;;;;;;;16.89;100.00;100817.28;5046764;28;20039;-64
2023/07/02 00:56:25;;;;;;;16.70;5.60;;;;;;;16.87;100.00;100820.03;5029453;28;20024;-63
2023/07/02 00:58:53;;;;;;;20.75;5.88;;;;;;;16.96;100.00;100821.28;5047176;28;20476;-61
2023/07/02 01:01:21;;;;;;;15.60;5.93;;;;;;;16.96;100.00;100825.75;5030003;28;20366;-61
2023/07/02 01:04:03;;;;;;;17.65;6.68;;;;;;;16.95;100.00;100824.03;5046772;28;20021;-63
2023/07/02 01:06:32;;;;;;;16.77;7.40;;;;;;;17.04;100.00;100828.81;5045606;28;20032;-62
2023/07/02 01:08:59;;;;;;;20.38;6.72;;;;;;;17.01;100.00;100818.34;5031524;28;20386;-63
2023/07/02 01:11:44;;;;;;;20.70;7.00;;;;;;;17.00;100.00;100827.25;5029473;28;20039;-66
2023/07/02 01:14:21;;;;;;;22.08;7.35;;;;;;;16.96;100.00;100828.41;5031020;28;20041;-62
2023/07/02 01:16:47;;;;;;;16.40;6.90;;;;;;;16.96;100.00;100836.38;5026078;28;20108;-63
2023/07/02 01:19:19;;;;;;;25.58;7.80;;;;;;;16.88;100.00;100834.19;5044517;28;20438;-61
2023/07/02 01:21:46;;;;;;;21.05;6.72;;;;;;;16.81;100.00;100836.38;5051467;28;20037;-63
2023/07/02 01:24:14;;;;;;;17.80;7.60;;;;;;;16.79;100.00;100838.25;5070719;28;20032;-67
2023/07/02 01:26:39;;;;;;;21.35;7.85;;;;;;;16.84;100.00;100838.00;5052263;28;20056;-64
2023/07/02 01:29:18;;;;;;;25.15;7.60;;;;;;;16.82;100.00;100826.59;5070791;28;20055;-66
2023/07/02 01:31:44;;;;;;;22.13;7.90;;;;;;;16.79;100.00;100824.97;5059425;28;20037;-63
2023/07/02 01:34:10;;;;;;;30.42;7.72;;;;;;;16.79;100.00;100824.97;5050430;28;20063;-64
2023/07/02 01:36:36;;;;;;;22.92;7.15;;;;;;;16.78;100.00;100821.47;5032801;28;20021;-62
2023/07/02 01:39:02;;;;;;;19.98;7.45;;;;;;;16.77;100.00;100821.56;5050958;28;20399;-63
2023/07/02 01:41:27;;;;;;;20.70;6.90;;;;;;;16.67;100.00;100819.44;5049460;28;20107;-62
2023/07/02 01:43:52;;;;;;;19.63;7.13;;;;;;;16.60;100.00;100823.41;5015200;28;20459;-63
2023/07/02 01:46:18;;;;;;;21.85;7.78;;;;;;;16.57;100.00;100820.06;5050002;28;20035;-63
2023/07/02 01:48:43;;;;;;;22.88;7.78;;;;;;;16.43;100.00;100827.06;5047038;28;20061;-66
2023/07/02 01:51:08;;;;;;;23.38;7.72;;;;;;;16.37;100.00;100830.94;5050542;28;20036;-62
2023/07/02 01:53:34;;;;;;;19.40;6.97;;;;;;;16.36;100.00;100823.06;5050284;28;20020;-66
2023/07/02 01:55:59;;;;;;;24.65;7.95;;;;;;;16.34;100.00;100825.81;5050355;28;20112;-65
2023/07/02 01:58:25;;;;;;;23.35;7.32;;;;;;;16.32;100.00;100821.53;5042200;28;20029;-65
2023/07/02 02:00:50;;;;;;;19.30;6.78;;;;;;;16.27;100.00;100829.78;5069689;28;20111;-62
2023/07/02 02:03:16;;;;;;;26.38;7.57;;;;;;;16.25;100.00;100829.88;5070133;28;20098;-64
2023/07/02 02:05:41;;;;;;;19.40;7.15;;;;;;;16.25;100.00;100829.00;5070615;28;20066;-65
2023/07/02 02:08:07;;;;;;;30.70;7.53;;;;;;;16.26;100.00;100822.75;5056429;28;20108;-65
2023/07/02 02:10:32;;;;;;;29.55;7.75;;;;;;;16.24;100.00;100836.13;5050549;28;20082;-62
2023/07/02 02:12:57;;;;;;;24.83;7.70;;;;;;;16.24;100.00;100841.44;5048618;28;20045;-65
2023/07/02 02:15:23;;;;;;;22.73;7.55;;;;;;;16.22;100.00;100835.34;5050570;28;20024;-66
2023/07/02 02:17:48;;;;;;;22.95;7.68;;;;;;;16.21;100.00;100835.44;5048956;28;20112;-65
2023/07/02 02:20:13;;;;;;;22.90;8.18;;;;;;;16.29;100.00;100839.38;5031563;28;20473;-63
2023/07/02 02:22:39;;;;;;;26.38;8.25;;;;;;;16.24;100.00;100844.13;5049933;28;20085;-65
2023/07/02 02:25:04;;;;;;;26.27;8.43;;;;;;;16.26;100.00;100844.03;5049390;28;20087;-65
2023/07/02 02:27:30;;;;;;;19.65;7.45;;;;;;;16.26;100.00;100846.69;5031853;28;20033;-65
2023/07/02 02:29:55;;;;;;;25.50;8.00;;;;;;;16.18;100.00;100841.81;5049255;28;20032;-63
2023/07/02 02:32:21;;;;;;;18.63;6.88;;;;;;;16.28;100.00;100850.97;5050157;28;20032;-62
2023/07/02 02:34:47;;;;;;;18.23;7.53;;;;;;;16.31;100.00;100852.56;5020281;28;20112;-61
2023/07/02 02:37:12;;;;;;;23.67;8.57;;;;;;;16.31;100.00;100862.38;5036057;28;20056;-65
2023/07/02 02:39:38;;;;;;;21.33;7.28;;;;;;;16.31;100.00;100863.22;5049450;28;20021;-66
2023/07/02 02:42:04;;;;;;;28.50;8.57;;;;;;;16.35;100.00;100872.75;5048124;28;20029;-66
2023/07/02 02:44:29;;;;;;;22.20;7.55;;;;;;;16.35;100.00;100870.09;5031576;28;20043;-65
2023/07/02 02:46:55;;;;;;;20.10;7.90;;;;;;;16.37;100.00;100870.84;5048943;28;20028;-66
2023/07/02 02:49:20;;;;;;;23.13;7.50;;;;;;;16.42;100.00;100875.88;5049598;28;20036;-62
2023/07/02 02:51:45;;;;;;;17.80;7.43;;;;;;;16.42;100.00;100866.13;5048808;28;20116;-64
2023/07/02 02:54:11;;;;;;;20.35;8.18;;;;;;;16.44;100.00;100881.13;5049657;28;20025;-64
2023/07/02 02:56:36;;;;;;;31.20;8.38;;;;;;;16.44;100.00;100883.78;5048187;28;20032;-64
2023/07/02 02:59:02;;;;;;;28.30;7.80;;;;;;;16.45;100.00;100882.81;5048689;28;20036;-66
2023/07/02 03:01:29;;;;;;;27.52;8.48;;;;;;;16.41;100.00;100875.03;5049519;28;20021;-61
2023/07/02 03:03:55;;;;;;;22.02;7.88;;;;;;;16.36;100.00;100874.44;5047388;28;20024;-63
2023/07/02 03:06:20;;;;;;;27.80;8.23;;;;;;;16.29;100.00;100875.75;5029373;28;20025;-63
2023/07/02 03:08:45;;;;;;;27.33;7.10;;;;;;;16.32;100.00;100872.06;5028533;28;20018;-64
2023/07/02 03:11:11;;;;;;;24.67;8.40;;;;;;;16.21;100.00;100867.34;5028089;28;20067;-63
2023/07/02 03:13:36;;;;;;;22.45;8.02;;;;;;;16.32;100.00;100877.38;5016255;28;20067;-63
2023/07/02 03:16:02;;;;;;;21.75;7.53;;;;;;;16.23;100.00;100869.00;5048916;28;20037;-64
2023/07/02 03:18:27;;;;;;;23.95;8.32;;;;;;;16.20;100.00;100865.66;5048519;28;20025;-63
2023/07/02 03:20:53;;;;;;;24.63;7.88;;;;;;;16.10;100.00;100866.16;5048725;28;20040;-65
2023/07/02 03:23:18;;;;;;;23.77;8.13;;;;;;;16.06;100.00;100856.66;5048681;28;20524;-65
2023/07/02 03:25:43;;;;;;;31.63;7.65;;;;;;;15.99;100.00;100856.16;5048390;28;20025;-63
2023/07/02 03:28:09;;;;;;;27.08;7.88;;;;;;;15.92;100.00;100868.88;5047457;28;20108;-65
2023/07/02 03:30:34;;;;;;;24.73;8.25;;;;;;;15.86;100.00;100869.22;5030091;28;20115;-64
2023/07/02 03:32:59;;;;;;;25.75;7.40;;;;;;;15.88;100.00;100883.28;5036343;28;20124;-64
2023/07/02 03:35:25;;;;;;;25.00;7.97;;;;;;;15.88;100.00;100877.97;5038269;28;20095;-64
2023/07/02 03:37:50;;;;;;;29.45;8.25;;;;;;;15.85;100.00;100883.47;5048415;28;20440;-63
2023/07/02 03:40:15;;;;;;;25.20;7.63;;;;;;;15.85;100.00;100887.91;5048530;28;20021;-62
2023/07/02 03:42:43;;;;;;;24.50;8.65;;;;;;;15.75;100.00;100883.09;5048025;28;20025;-65
2023/07/02 03:45:08;;;;;;;21.45;6.97;;;;;;;15.77;100.00;100880.34;5030995;28;20026;-66
2023/07/02 03:47:34;;;;;;;35.42;7.95;;;;;;;15.74;100.00;100894.69;5028199;28;20508;-62
2023/07/02 03:49:59;;;;;;;25.90;7.47;;;;;;;15.85;100.00;100893.22;5026812;28;20033;-62
2023/07/02 03:52:24;;;;;;;22.23;7.53;;;;;;;15.83;100.00;100893.31;5029740;28;20032;-62
2023/07/02 03:54:50;;;;;;;25.90;7.28;;;;;;;15.82;100.00;100896.06;5024495;28;20030;-63
2023/07/02 03:57:15;;;;;;;27.33;8.20;;;;;;;15.84;100.00;100887.06;5029374;28;20036;-63
2023/07/02 03:59:40;;;;;;;24.63;7.57;;;;;;;15.88;100.00;100899.25;5047430;28;20521;-62
2023/07/02 04:02:06;;;;;;;24.00;7.60;;;;;;;15.85;100.00;100898.53;5047091;28;20410;-59
2023/07/02 04:04:31;;;;;;;26.50;7.15;;;;;;;15.78;100.00;100908.66;5047143;28;20025;-61
2023/07/02 04:06:57;;;;;;;30.58;7.50;;;;;;;15.94;100.00;100910.44;5029327;28;20029;-62
2023/07/02 04:09:22;;;;;;;27.65;8.23;;;;;;;15.94;100.00;100911.31;5046974;28;20430;-61
2023/07/02 04:11:47;;;;;;;22.23;8.10;;;;;;;16.00;100.00;100904.84;5045814;28;20024;-62
2023/07/02 04:14:13;;;;;;;29.08;7.47;;;;;;;16.02;100.00;100900.31;5046974;28;20052;-62
2023/07/02 04:16:38;;;;;;;26.13;7.20;;;;;;;15.98;100.00;100904.91;5033894;28;20033;-61
2023/07/02 04:19:03;;;;;;;23.27;6.82;;;;;;;16.02;100.00;100910.94;5046706;28;20417;-64
2023/07/02 04:21:30;;;;;;;18.85;7.35;;;;;;;16.09;100.00;100912.28;5046989;28;20481;-61
2023/07/02 04:23:55;;;;;;;20.88;6.80;;;;;;;16.15;100.00;100917.28;5046759;28;20526;-61
2023/07/02 04:26:21;;;;;;;22.67;6.75;;;;;;;16.18;100.00;100932.19;5045657;28;20021;-63
2023/07/02 04:28:46;;;;;;;20.67;5.95;;;;;;;16.20;100.00;100927.66;5047713;28;20059;-63
2023/07/02 04:31:11;;;;;;;24.17;6.93;;;;;;;16.26;100.00;100926.44;5046629;28;20029;-63
2023/07/02 04:33:37;;;;;;;21.92;6.75;;;;;;;16.28;100.00;100921.88;5028368;28;20377;-60
2023/07/02 04:36:03;;;;;;;24.92;6.97;;;;;;;16.26;100.00;100926.44;5046538;28;20013;-61
2023/07/02 04:38:28;;;;;;;20.30;6.72;;;;;;;16.36;100.00;100930.28;5046885;28;20052;-62
2023/07/02 04:40:54;;;;;;;20.42;6.28;;;;;;;16.34;100.00;100926.84;5037071;28;20481;-62
2023/07/02 04:43:19;;;;;;;24.13;6.20;;;;;;;16.34;100.00;100934.81;5046961;28;20098;-61
2023/07/02 04:45:45;;;;;;;16.17;6.28;;;;;;;16.33;100.00;100938.44;5054993;28;20058;-62
2023/07/02 04:48:10;;;;;;;21.05;6.00;;;;;;;16.35;100.00;100944.53;5058281;28;20032;-61
2023/07/02 04:50:35;;;;;;;20.83;6.50;;;;;;;16.40;100.00;100942.47;5053762;28;20140;-61
2023/07/02 04:53:01;;;;;;;21.33;7.35;;;;;;;16.44;100.00;100937.84;5061577;28;20031;-61
2023/07/02 04:55:27;;;;;;;18.52;6.28;;;;;;;16.48;100.00;100934.03;5039109;28;20083;-60
2023/07/02 04:57:52;;;;;;;22.23;6.97;;;;;;;16.53;100.00;100941.75;5037658;28;20032;-64
2023/07/02 05:00:18;;;;;;;19.98;6.53;;;;;;;16.58;100.00;100939.69;5057195;28;20029;-62
2023/07/02 05:02:44;;;;;;;21.40;6.43;;;;;;;16.64;100.00;100946.44;5048653;28;20031;-61
2023/07/02 05:05:09;;;;;;;20.60;6.18;;;;;;;16.70;100.00;100945.25;5028092;28;20021;-62
2023/07/02 05:07:34;;;;;;;25.30;6.63;;;;;;;16.70;100.00;100945.25;5046820;28;20072;-61
2023/07/02 05:10:00;;;;;;;15.65;6.63;;;;;;;16.75;100.00;100946.69;5046131;28;20033;-64
2023/07/02 05:12:25;;;;;;;19.95;6.70;;;;;;;16.73;100.00;100943.25;5035573;28;20545;-63
2023/07/02 05:14:50;;;;;;;20.75;6.38;;;;;;;16.67;100.00;100938.28;5056477;28;20020;-62
2023/07/02 05:17:16;;;;;;;16.88;6.05;;;;;;;16.73;100.00;100943.25;5049757;28;20040;-61
2023/07/02 05:19:41;;;;;;;14.50;6.18;;;;;;;16.79;100.00;100942.03;5055436;28;20104;-60
2023/07/02 05:22:10;;;;;;;18.05;6.47;;;;;;;16.87;100.00;100947.78;5046109;28;20087;-61
2023/07/02 05:24:36;;;;;;;;;;;;;;;16.96;100.00;100949.03;5046008;28;20340;-60
2023/07/02 05:27:01;;;;;;;20.75;6.43;;;;;;;16.93;100.00;100949.22;5040433;28;19913;-61
2023/07/02 05:29:26;;;;;;;22.77;5.80;;;;;;;17.00;100.00;100955.00;5026753;28;20045;-61
2023/07/02 05:31:52;;;;;;;19.10;5.68;;;;;;;17.06;100.00;100957.31;5025711;28;20030;-61
2023/07/02 05:34:17;;;;;;;25.15;6.60;;;;;;;17.20;100.00;100956.53;5027155;28;20523;-61
2023/07/02 05:36:43;;;;;;;16.23;5.38;;;;;;;17.14;100.00;100972.88;5027243;28;20138;-61
2023/07/02 05:39:08;;;;;;;23.00;6.30;;;;;;;17.32;100.00;100967.38;5027026;28;20409;-63
2023/07/02 05:41:33;;;;;;;21.70;6.00;;;;;;;17.29;100.00;100969.31;5059227;28;20075;-63
2023/07/02 05:43:59;;;;;;;17.25;5.65;;;;;;;17.32;100.00;100980.69;5066569;28;20032;-62
2023/07/02 05:46:25;;;;;;;25.42;6.20;;;;;;;17.40;100.00;100981.94;5066727;28;20025;-60
2023/07/02 05:48:50;;;;;;;16.63;5.70;;;;;;;17.33;100.00;100985.94;5051909;28;20033;-63
2023/07/02 05:51:25;;;;;;;18.92;5.35;;;;;;;17.35;100.00;100997.38;5041853;28;20492;-66
2023/07/02 05:53:51;;;;;;;23.05;6.40;;;;;;;17.32;100.00;100986.03;5027241;28;20441;-62
2023/07/02 05:56:17;;;;;;;18.90;6.13;;;;;;;17.48;100.00;100993.94;5044670;28;20025;-61
2023/07/02 05:58:42;;;;;;;15.15;5.60;;;;;;;17.57;100.00;100996.03;5051400;28;20025;-63
2023/07/02 06:01:08;;;;;;;19.30;5.90;;;;;;;17.55;100.00;101001.47;5058135;28;20036;-61
2023/07/02 06:03:33;;;;;;;19.75;6.32;;;;;;;17.64;100.00;101008.03;5050867;28;20461;-60
2023/07/02 06:05:59;;;;;;;17.25;5.68;;;;;;;17.56;100.00;101013.00;5048179;28;20055;-62
2023/07/02 06:08:24;;;;;;;15.15;5.72;;;;;;;17.54;100.00;101012.22;5055731;28;20029;-63
2023/07/02 06:10:50;;;;;;;15.82;5.13;;;;;;;17.42;100.00;101019.13;5057256;28;20032;-61
2023/07/02 06:13:16;;;;;;;16.95;5.88;;;;;;;17.57;100.00;101014.69;5039139;28;20123;-62
2023/07/02 06:15:41;;;;;;;20.42;6.03;;;;;;;17.75;100.00;101019.84;5041590;28;20455;-60
2023/07/02 06:18:07;;;;;;;19.90;6.30;;;;;;;17.72;100.00;101010.22;5031032;28;20021;-62
2023/07/02 06:20:32;;;;;;;24.45;7.15;;;;;;;17.63;100.00;101011.66;5061362;28;20086;-61
2023/07/02 06:22:58;;;;;;;15.55;5.90;;;;;;;17.71;100.00;101013.00;5061255;28;20026;-62
2023/07/02 06:25:23;;;;;;;17.73;5.95;;;;;;;17.78;100.00;101014.31;5055465;28;20021;-62
2023/07/02 06:27:49;;;;;;;18.63;6.13;;;;;;;17.85;100.00;101023.66;5048497;28;20126;-63
2023/07/02 06:30:14;;;;;;;17.80;5.57;;;;;;;17.65;99.21;101036.41;5056175;28;20306;-61
2023/07/02 06:32:40;;;;;;;18.70;5.82;;;;;;;17.54;98.22;101012.22;5060647;28;20029;-61
2023/07/02 06:35:09;;;;;;;15.95;5.30;;;;;;;17.71;97.39;101013.00;5056085;28;20677;-62
2023/07/02 06:37:34;;;;;;;22.23;5.50;;;;;;;17.68;98.71;101025.56;5048979;28;20055;-60
2023/07/02 06:39:59;;;;;;;18.50;5.78;;;;;;;17.73;97.68;101021.75;5048523;28;20460;-61
2023/07/02 06:42:25;;;;;;;14.95;5.63;;;;;;;17.69;96.02;101026.41;5055321;28;20032;-61
2023/07/02 06:44:51;;;;;;;15.63;5.25;;;;;;;17.76;96.29;101026.91;5057506;28;20021;-62
2023/07/02 06:47:16;;;;;;;19.08;5.60;;;;;;;17.74;96.19;101024.34;5056750;28;20409;-61
2023/07/02 06:49:42;;;;;;;18.23;5.75;;;;;;;17.75;96.34;101038.50;5054780;28;20032;-61
2023/07/02 06:52:07;;;;;;;16.30;5.45;;;;;;;17.99;96.45;101038.78;5057602;28;20481;-62
2023/07/02 06:54:33;;;;;;;12.00;5.05;;;;;;;18.07;95.41;101030.31;5057091;28;20025;-62
2023/07/02 06:56:58;;;;;;;17.48;5.13;;;;;;;18.08;89.53;101036.50;5055969;28;20012;-59
2023/07/02 06:59:24;;;;;;;12.57;4.93;;;;;;;18.06;91.41;101040.13;5057438;28;20066;-63
2023/07/02 07:01:52;;;;;;;12.35;4.95;;;;;;;18.05;91.75;101049.09;5057708;28;20020;-63
2023/07/02 07:04:17;;;;;;;23.37;5.60;;;;;;;18.04;92.28;101059.84;5055489;28;20381;-65
2023/07/02 07:06:43;;;;;;;11.80;5.30;;;;;;;17.99;93.29;101048.59;5057928;28;20279;-62
2023/07/02 07:09:08;;;;;;;16.38;5.30;;;;;;;18.02;92.75;101064.41;5055416;28;20103;-62
2023/07/02 07:11:34;;;;;;;15.98;5.40;;;;;;;17.98;93.98;101054.88;5056875;28;20028;-62
2023/07/02 07:13:59;;;;;;;20.85;5.50;;;;;;;18.01;93.23;101062.69;5053709;28;20061;-63
2023/07/02 07:16:25;;;;;;;17.00;5.43;;;;;;;18.09;94.51;101068.41;5057646;28;20063;-62
2023/07/02 07:18:50;;;;;;;20.80;5.88;;;;;;;18.14;95.38;101085.00;5057928;28;20033;-62
2023/07/02 07:21:15;;;;;;;19.10;5.60;;;;;;;18.27;93.71;101078.91;5057084;28;20027;-61
2023/07/02 07:23:41;;;;;;;21.48;5.93;;;;;;;18.16;92.86;101063.59;5058201;28;20115;-62
2023/07/02 07:26:06;;;;;;;15.13;5.38;;;;;;;18.13;90.50;101083.31;5056193;28;20384;-61
2023/07/02 07:28:32;;;;;;;13.40;5.10;;;;;;;18.23;91.72;101096.91;5057491;28;20028;-63
2023/07/02 07:30:57;;;;;;;18.92;5.35;;;;;;;18.18;88.76;101080.31;5055459;28;20455;-63
2023/07/02 07:33:23;;;;;;;16.90;5.10;;;;;;;18.23;89.86;101102.25;5048114;28;20021;-61
2023/07/02 07:35:48;;;;;;;18.10;5.32;;;;;;;18.38;90.14;101104.91;5038272;28;20020;-62
2023/07/02 07:38:14;;;;;;;14.70;5.18;;;;;;;18.31;88.57;101105.28;5056553;28;20060;-65
2023/07/02 07:40:40;;;;;;;13.80;4.65;;;;;;;18.39;86.38;101094.13;5054645;28;20039;-62
2023/07/02 07:43:05;;;;;;;17.33;5.53;;;;;;;18.52;85.61;101110.22;5056847;28;20025;-63
2023/07/02 07:45:30;;;;;;;14.13;4.55;;;;;;;18.50;84.91;101096.13;5057204;28;20020;-63
2023/07/02 07:47:56;;;;;;;21.35;4.55;;;;;;;18.65;87.12;101118.31;5047871;28;20495;-63
2023/07/02 07:50:21;;;;;;;15.73;5.43;;;;;;;18.72;86.36;101093.91;5057138;28;20021;-64
2023/07/02 07:52:47;;;;;;;12.88;4.40;;;;;;;18.87;85.94;101095.56;5056184;28;20024;-62
2023/07/02 07:55:13;;;;;;;12.10;4.65;;;;;;;18.79;84.06;101111.22;5054565;28;20461;-67
2023/07/02 07:57:38;;;;;;;16.48;4.95;;;;;;;18.81;85.27;101102.16;5055995;28;20066;-62
2023/07/02 08:00:07;;;;;;;11.73;4.85;;;;;;;18.79;84.56;101111.22;5038438;28;20020;-62
2023/07/02 08:02:33;;;;;;;17.30;4.90;;;;;;;18.91;83.95;101110.41;5055122;28;20385;-65
2023/07/02 08:04:58;;;;;;;12.02;4.93;;;;;;;19.04;83.95;101104.28;5052237;28;20036;-62
2023/07/02 08:07:24;;;;;;;15.55;5.32;;;;;;;19.04;83.71;101105.13;5055981;28;20025;-60
2023/07/02 08:09:49;;;;;;;12.85;4.32;;;;;;;18.86;81.78;101107.19;5054127;28;20064;-67
2023/07/02 08:12:14;;;;;;;8.77;4.10;;;;;;;18.88;82.12;101113.31;5051423;28;20486;-61
2023/07/02 08:14:40;;;;;;;12.13;4.38;;;;;;;19.06;82.28;101097.88;5053373;28;20040;-60
2023/07/02 08:17:06;;;;;;;14.90;4.28;;;;;;;19.03;82.19;101111.41;5040724;28;20468;-60
2023/07/02 08:19:31;;;;;;;13.02;4.53;;;;;;;19.06;79.60;101097.03;5047165;28;20044;-63
2023/07/02 08:21:56;;;;;;;13.30;4.38;;;;;;;18.94;81.05;101110.22;5043939;28;20036;-64
2023/07/02 08:24:22;;;;;;;11.43;4.38;;;;;;;18.92;78.08;101117.47;5048637;28;20408;-62
2023/07/02 08:26:49;;;;;;;13.07;4.20;;;;;;;18.89;79.63;101117.69;5050218;28;20036;-64
2023/07/02 08:29:14;;;;;;;8.93;3.33;;;;;;;19.02;78.73;101116.88;5053393;28;20197;-64
2023/07/02 08:31:40;;;;;;;7.22;3.10;;;;;;;19.12;77.22;101115.34;5051422;28;20040;-63
2023/07/02 08:34:05;;;;;;;8.70;4.22;;;;;;;19.15;79.07;101111.63;5038978;28;20123;-67
2023/07/02 08:36:31;;;;;;;9.65;3.38;;;;;;;19.15;76.91;101104.44;5056285;28;20025;-61
2023/07/02 08:38:56;;;;;;;12.77;4.40;;;;;;;19.22;80.30;101118.25;5059779;28;20013;-64
2023/07/02 08:41:23;;;;;;;13.60;4.50;;;;;;;19.31;81.67;101127.47;5037677;28;20137;-65
2023/07/02 08:43:49;;;;;;;12.93;3.60;;;;;;;19.12;79.38;101109.16;5052954;28;20039;-62
2023/07/02 08:46:15;;;;;;;8.57;3.78;;;;;;;19.19;78.99;101132.69;5038291;28;20107;-62
2023/07/02 08:48:41;;;;;;;11.38;4.03;;;;;;;19.30;79.73;101128.44;5048120;28;20033;-66
2023/07/02 08:51:06;;;;;;;11.48;4.15;;;;;;;19.43;78.50;101134.69;5053213;28;20036;-62
2023/07/02 08:53:33;;;;;;;9.98;3.55;;;;;;;19.44;78.20;101147.06;5059048;28;20029;-61
2023/07/02 08:56:00;;;;;;;13.90;3.90;;;;;;;19.64;78.59;101133.31;5056281;28;20051;-65
2023/07/02 08:58:25;;;;;;;10.95;3.83;;;;;;;19.63;78.42;101134.28;5055810;28;20059;-62
2023/07/02 09:01:07;;;;;;;11.50;4.15;;;;;;;19.91;80.98;101130.59;5055801;28;20115;-62
2023/07/02 09:03:32;;;;;;;11.15;4.65;;;;;;;19.69;79.53;101131.22;5055831;28;20472;-61
2023/07/02 09:05:58;;;;;;;9.63;3.38;;;;;;;19.69;76.78;101142.72;5055095;28;20135;-61
2023/07/02 09:08:27;;;;;;;12.77;3.60;;;;;;;19.93;78.45;101134.00;5053101;28;20111;-61
2023/07/02 09:10:53;;;;;;;18.45;4.47;;;;;;;19.95;79.38;101125.88;5044972;28;20021;-63
2023/07/02 09:13:18;;;;;;;13.75;4.00;;;;;;;19.92;75.99;101147.47;5026844;28;20489;-65
2023/07/02 09:15:44;;;;;;;14.70;3.78;;;;;;;19.87;78.37;101129.06;5047594;28;20021;-64
2023/07/02 09:18:25;;;;;;;8.93;3.33;;;;;;;19.77;75.35;101142.22;5051073;28;20029;-67
2023/07/02 09:20:52;;;;;;;12.20;4.07;;;;;;;19.81;75.95;101129.50;5044788;28;20508;-58
2023/07/02 09:23:17;;;;;;;11.40;3.60;;;;;;;19.80;76.10;101155.38;5026999;28;20568;-66
2023/07/02 09:25:43;;;;;;;7.22;3.20;;;;;;;19.84;78.03;101140.00;5044313;28;20096;-62
2023/07/02 09:28:18;;;;;;;13.25;3.42;;;;;;;19.91;73.98;101143.09;5047179;28;20104;-64
2023/07/02 09:30:55;;;;;;;8.13;3.35;;;;;;;19.86;72.77;101156.78;5058901;28;20029;-67
2023/07/02 09:33:25;;;;;;;7.50;3.08;;;;;;;19.97;70.72;101144.47;5054759;28;20055;-64
2023/07/02 09:35:51;;;;;;;10.88;3.28;;;;;;;20.12;70.69;101130.06;5039266;28;20043;-60
2023/07/02 09:38:17;;;;;;;6.55;2.67;;;;;;;20.13;70.64;101133.59;5051945;28;20032;-62
2023/07/02 09:40:47;;;;;;;5.53;2.50;;;;;;;20.05;68.40;101147.53;5057172;28;20461;-63
2023/07/02 09:43:12;;;;;;;7.60;2.88;;;;;;;20.02;68.30;101145.91;5060950;28;20028;-60
2023/07/02 09:45:38;;;;;;;10.20;3.20;;;;;;;20.10;67.75;101150.72;5041968;28;20089;-60
2023/07/02 09:48:04;;;;;;;8.10;3.63;;;;;;;20.22;69.17;101158.88;5041328;28;20020;-60
2023/07/02 09:50:30;;;;;;;8.68;3.30;;;;;;;20.33;68.02;101145.59;5031897;28;20055;-62
2023/07/02 09:52:55;;;;;;;7.43;3.53;;;;;;;20.29;68.32;101134.22;5023877;28;20508;-62
2023/07/02 09:55:21;;;;;;;11.95;3.80;;;;;;;20.44;67.04;101137.63;5040201;28;20020;-59
2023/07/02 09:57:47;;;;;;;11.73;3.40;;;;;;;20.59;65.95;101134.84;5064438;28;20017;-61
2023/07/02 10:00:13;;;;;;;8.50;3.33;;;;;;;20.60;67.09;101139.22;5059599;28;20024;-63
2023/07/02 10:02:39;;;;;;;17.13;4.30;;;;;;;20.65;68.66;101145.09;5042192;28;20021;-61
2023/07/02 10:05:04;;;;;;;11.40;3.88;;;;;;;20.67;65.05;101151.19;5040436;28;20503;-63
2023/07/02 10:07:32;;;;;;;11.05;3.58;;;;;;;20.69;68.50;101170.69;5056130;28;20017;-61
2023/07/02 10:09:58;;;;;;;8.38;3.30;;;;;;;20.75;65.79;101149.78;5041801;28;20087;-64
2023/07/02 10:12:30;;;;;;;10.02;3.58;;;;;;;20.94;63.93;101160.91;5058089;28;20498;-61
2023/07/02 10:14:57;;;;;;;10.18;3.42;;;;;;;20.94;61.12;101160.03;5057786;28;20021;-62
2023/07/02 10:17:31;;;;;;;10.75;4.25;;;;;;;21.13;60.85;101162.22;5058335;28;20040;-65
2023/07/02 10:19:58;;;;;;;10.02;3.38;;;;;;;21.13;58.53;101166.72;5036957;28;20029;-65
2023/07/02 10:22:24;;;;;;;11.77;3.20;;;;;;;20.93;57.76;101167.22;5059651;28;20045;-61
2023/07/02 10:25:05;;;;;;;10.02;3.15;;;;;;;20.91;58.75;101153.09;5058728;28;20096;-63
2023/07/02 10:27:40;;;;;;;10.50;3.40;;;;;;;20.84;56.43;101147.28;5055898;28;20025;-62
2023/07/02 10:30:07;;;;;;;6.65;2.92;;;;;;;21.25;57.36;101154.25;5057910;28;20029;-66
2023/07/02 10:32:34;;;;;;;8.25;3.00;;;;;;;21.44;56.95;101156.41;5059179;28;20024;-62
2023/07/02 10:35:02;;;;;;;7.05;3.05;;;;;;;21.38;54.95;101155.03;5053639;28;20055;-63
2023/07/02 10:37:35;;;;;;;8.20;3.47;;;;;;;21.26;54.97;101188.09;5054831;28;20052;-65
2023/07/02 10:40:04;;;;;;;11.15;3.70;;;;;;;21.26;57.03;101170.22;5047263;28;20083;-65
2023/07/02 10:42:30;;;;;;;6.22;3.42;;;;;;;21.10;51.97;101175.81;5049615;28;20040;-61
2023/07/02 10:44:55;;;;;;;6.30;3.30;;;;;;;20.93;52.50;101174.41;5039902;28;20029;-61
2023/07/02 10:47:21;;;;;;;6.85;3.80;;;;;;;20.84;54.09;101186.59;5028702;28;20040;-63
2023/07/02 10:49:46;;;;;;;14.48;4.00;;;;;;;21.01;55.59;101158.59;5042419;28;20036;-61
2023/07/02 10:52:12;;;;;;;10.85;3.67;;;;;;;21.24;54.95;101165.91;5059785;28;20659;-63
2023/07/02 10:54:44;;;;;;;7.15;3.40;;;;;;;21.35;52.37;101174.03;5056467;28;20025;-66
2023/07/02 10:57:12;;;;;;;6.82;3.15;;;;;;;21.34;54.00;101161.56;5060204;28;20703;-64
2023/07/02 10:59:37;;;;;;;10.90;3.47;;;;;;;21.64;51.19;101184.38;5058009;28;20095;-62
2023/07/02 11:02:03;;;;;;;8.15;3.65;;;;;;;21.45;51.31;101207.22;5060867;28;20012;-61
2023/07/02 11:04:32;;;;;;;6.55;3.50;;;;;;;21.57;51.33;101183.13;5057273;28;20012;-64
2023/07/02 11:06:57;;;;;;;10.57;3.45;;;;;;;21.51;51.64;101176.41;5039968;28;20021;-62
2023/07/02 11:09:23;;;;;;;7.25;3.30;;;;;;;21.36;52.83;101181.09;5049952;28;20036;-61